Aitkin, MN

1:16 PM CST on November 23, 2014 (GMT -0600)
Brainerd-Crow Wing County Regional | Change Station
CLOSE
Current Station
Airport
Location: Brainerd,
Elevation: 1227 ft
Nearby Weather Stations

Elev 1227 ft 46.40 °N, 94.13 °W | Updated 23 minutes ago

Overcast
Overcast
36 °F
Feels Like 30 °F
N
7
Wind Variable Wind from WSW

Today
High -- | Low -- °F
--% Chance of Precip.
Yesterday
High -- | Low -- °F
Precip. -- in
7:27 AM 4:34 PM
New Moon, 2% visible
Pressure 29.46 in
Visibility 4.0 miles
Clouds Mostly Cloudy 4700 ft
Overcast 5500 ft
Windchill 30 °F
Dew Point 34 °F
Humidity 93%
Rainfall 0.00 in
Snow Depth Not available.
UV 1 out of 12
Pollen .10 out of 12
Air Quality Not available.
Flu Activity Not available.
METAR KBRD 231853Z AUTO 24006KT 4SM BR BKN047 OVC055 02/01 A2942 RMK AO2 RAE1756 SLP975 P0000 T00220011

More Conditions Fewer Conditions

Pressure 29.46 in
Visibility 4.0 miles
Clouds Mostly Cloudy 4700 ft
Overcast 5500 ft
Windchill 30 °F
Dew Point 34 °F
Humidity 93%
Rainfall 0.00 in
Snow Depth Not available.
UV 1 out of 12
Pollen .10 out of 12
Air Quality Not available.
Flu Activity Not available.
METAR KBRD 231853Z AUTO 24006KT 4SM BR BKN047 OVC055 02/01 A2942 RMK AO2 RAE1756 SLP975 P0000 T00220011

More Conditions Fewer Conditions

10-Day Weather Forecast

Almanac

Astronomy

Nov. 23, 2014 Rise Set
Actual Time
Civil Twilight
Nautical Twilight
Astronomical Twilight
Moon
Length of Visible Light
Length of Day
Tomorrow will be .
, % of the Moon is Illuminated

Today's Extremes

State Highs State Lows

Community

WunderPhotos

Upload Photos

1,773,141 photos uploaded!

WunderBlogs® & News

Nearby

Air Quality

  Air Quality AQ Index Pollutant
Not available.

Snow Depth

Station Depth Elevation

Earthquake Activity

City Distance Mag. Time & Date
Minimum magnitude displayed is 2.5.

Coastal Water Temperatures

Place Temperature

Nearby Weather Stations